Angara A148 at Mirnyi on Oct 18th 2019, overran runway on landing

Last Update: October 18, 2019 / 19:04:24 GMT/Zulu time

Bookmark this article
Incident Facts

Date of incident
Oct 18, 2019

Classification
Incident

Flight number
IK-711

Destination
Mirnyi, Russia

Aircraft Registration
RA-61713

Aircraft Type
Antonov An-148

ICAO Type Designator
A148

Airport ICAO Code
UERR

An Angara Airlines Antonov AN-148, registration RA-61713 performing flight IK-711 from Irkutsk to Mirnyi (Russia) with 61 passengers and 5 crew, landed on Mirnyi's runway 25 at 09:06L (00:06Z) but overran the end of the runway by about 15 meters coming to a stop on the paved surface of the runway end safety area. There were no injuries and no damage to the aircraft.

Russia's Ministry of Emergency (MCHS) reported a passenger aircraft had rolled out of the runway in Mirnyi. No injuries and no damage occurred.

Rosaviatsia reported the aircraft ran 15 meters past the end of the runway. The crew was informed about runway braking coefficients via ATIS to be 0.39, 0.32 and 0.32. The crew requested updated runway braking information (which was due at 00:00z), but did not receive any update. The crew therefore continued the approach and landing according to Standard Operating Procedures in Standard Mode in accordance with the landing performance charts.

Mode-S data suggest the aircraft crossed the runway end at 25 knots over ground.

The occurrence aircraft is still on the ground in Mirnyi about 18 hours after landing.

Metars:
UERR 180130Z 21002MPS CAVOK 02/02 Q1001 R25/850232 NOSIG RMK QFE720=
UERR 180100Z 21002MPS CAVOK 01/01 Q1001 R25/850239 NOSIG RMK QFE720=
UERR 180030Z 21003MPS CAVOK 01/01 Q1001 R25/850239 NOSIG RMK QFE720=
UERR 180000Z 19003MPS CAVOK 00/00 Q1001 R25/850239 NOSIG RMK QFE720=
UERR 172330Z 18002MPS 9999 FEW023CB 01/01 Q1001 R25/290150 NOSIG RMK QFE720=
UERR 172300Z VRB03MPS 9999 SCT021CB 02/02 Q1001 R25/290150 NOSIG RMK QFE720=
UERR 172230Z VRB01MPS 9999 SCT004 BKN020CB 01/01 Q1001 R25/290150 NOSIG RMK QBB140 QFE720=
UERR 172200Z 13002MPS 9999 SCT004 OVC020CB 01/01 Q1001 R25/290150 NOSIG RMK QBB140 QFE720=
UERR 172100Z 10002MPS 9999 -SHRA SCT004 OVC020CB 01/01 Q1002 R25/290150 NOSIG RMK QBB140 QFE721=
Incident Facts

Date of incident
Oct 18, 2019

Classification
Incident

Flight number
IK-711

Destination
Mirnyi, Russia

Aircraft Registration
RA-61713

Aircraft Type
Antonov An-148

ICAO Type Designator
A148

Airport ICAO Code
UERR

This article is published under license from Avherald.com. © of text by Avherald.com.
Article source

You can read 4 more free articles without a subscription.

Subscribe now and continue reading without any limits!

Are you a subscriber?
Login
Subscribe

Read unlimited articles and receive our daily update briefing. Gain better insights into what is happening in commercial aviation safety.

Free newsletter

Want to know more and stay ahead? Get our free weekly newsletter and join 4926 existing subscribers.

By subscribing, you accept our terms and conditions and confirm that you've read our privacy policy.

Send tip

Support AeroInside by sending a small tip amount.

Related articles

Newest articles

Subscribe today

Are you researching aviation incidents? Get access to AeroInside Insights, unlimited read access and receive the daily newsletter.

Pick your plan and subscribe

Partner

Blockaviation logo

A new way to document and demonstrate airworthiness compliance and aircraft value. Find out more.

Virtual Speech logo

ELITE Simulation Solutions is a leading global provider of Flight Simulation Training Devices, IFR training software as well as flight controls and related services. Find out more.

Get updates

Never miss an article from AeroInside. Subscribe to our free weekly newsletter and join 4926 existing subscribers.

By subscribing, you accept our terms and conditions and that you've read our privacy policy.

AeroInside Blog
Popular aircraft
Airbus A320
Boeing 737-800
Boeing 737-800 MAX
Popular airlines
American Airlines
United
Delta
Air Canada
Lufthansa
British Airways